sensor_id;sensor_type;location;lat;lon;timestamp;P1;durP1;ratioP1;P2;durP2;ratioP2
53871;SDS011;39787;53.174;5.798;2023-06-01T00:01:00;16.60;;;5.30;;
53871;SDS011;39787;53.174;5.798;2023-06-01T00:02:00;18.00;;;5.60;;
53871;SDS011;39787;53.174;5.798;2023-06-01T00:03:01;13.43;;;5.30;;
53871;SDS011;39787;53.174;5.798;2023-06-01T00:04:01;18.00;;;5.47;;
53871;SDS011;39787;53.174;5.798;2023-06-01T00:05:02;14.77;;;5.70;;
53871;SDS011;39787;53.174;5.798;2023-06-01T00:06:02;8.83;;;5.37;;
53871;SDS011;39787;53.174;5.798;2023-06-01T00:07:03;16.53;;;6.53;;
53871;SDS011;39787;53.174;5.798;2023-06-01T00:08:04;12.57;;;5.63;;
53871;SDS011;39787;53.174;5.798;2023-06-01T00:09:04;16.20;;;6.00;;
53871;SDS011;39787;53.174;5.798;2023-06-01T00:10:05;14.10;;;5.20;;
53871;SDS011;39787;53.174;5.798;2023-06-01T00:11:06;13.25;;;5.47;;
53871;SDS011;39787;53.174;5.798;2023-06-01T00:12:07;15.40;;;5.47;;
53871;SDS011;39787;53.174;5.798;2023-06-01T00:13:08;15.60;;;5.53;;
53871;SDS011;39787;53.174;5.798;2023-06-01T00:14:08;16.33;;;5.93;;
53871;SDS011;39787;53.174;5.798;2023-06-01T00:15:09;13.03;;;5.33;;
53871;SDS011;39787;53.174;5.798;2023-06-01T00:16:09;14.03;;;5.40;;
53871;SDS011;39787;53.174;5.798;2023-06-01T00:17:10;11.50;;;5.30;;
53871;SDS011;39787;53.174;5.798;2023-06-01T00:18:10;11.40;;;6.17;;
53871;SDS011;39787;53.174;5.798;2023-06-01T00:19:11;21.83;;;7.63;;
53871;SDS011;39787;53.174;5.798;2023-06-01T00:20:11;19.03;;;6.00;;
53871;SDS011;39787;53.174;5.798;2023-06-01T00:21:12;19.83;;;6.23;;
53871;SDS011;39787;53.174;5.798;2023-06-01T00:22:12;13.50;;;5.17;;
53871;SDS011;39787;53.174;5.798;2023-06-01T00:23:12;21.13;;;5.87;;
53871;SDS011;39787;53.174;5.798;2023-06-01T00:24:13;13.83;;;5.83;;
53871;SDS011;39787;53.174;5.798;2023-06-01T00:25:13;15.33;;;4.90;;
53871;SDS011;39787;53.174;5.798;2023-06-01T00:26:14;15.40;;;5.00;;
53871;SDS011;39787;53.174;5.798;2023-06-01T00:27:15;22.17;;;5.13;;
53871;SDS011;39787;53.174;5.798;2023-06-01T00:28:15;16.00;;;6.13;;
53871;SDS011;39787;53.174;5.798;2023-06-01T00:29:16;13.57;;;5.57;;
53871;SDS011;39787;53.174;5.798;2023-06-01T00:30:16;12.77;;;5.20;;
53871;SDS011;39787;53.174;5.798;2023-06-01T00:31:16;13.37;;;5.30;;
53871;SDS011;39787;53.174;5.798;2023-06-01T00:32:17;12.50;;;5.07;;
53871;SDS011;39787;53.174;5.798;2023-06-01T00:33:18;15.47;;;5.33;;
53871;SDS011;39787;53.174;5.798;2023-06-01T00:34:19;15.07;;;5.10;;
53871;SDS011;39787;53.174;5.798;2023-06-01T00:35:19;12.13;;;4.57;;
53871;SDS011;39787;53.174;5.798;2023-06-01T00:36:20;9.70;;;4.40;;
53871;SDS011;39787;53.174;5.798;2023-06-01T00:37:20;17.07;;;4.90;;
53871;SDS011;39787;53.174;5.798;2023-06-01T00:38:21;9.37;;;4.40;;
53871;SDS011;39787;53.174;5.798;2023-06-01T00:39:22;14.50;;;5.17;;
53871;SDS011;39787;53.174;5.798;2023-06-01T00:40:22;12.67;;;5.37;;
53871;SDS011;39787;53.174;5.798;2023-06-01T00:41:23;16.00;;;5.10;;
53871;SDS011;39787;53.174;5.798;2023-06-01T00:42:23;20.10;;;5.53;;
53871;SDS011;39787;53.174;5.798;2023-06-01T00:43:24;12.73;;;4.77;;
53871;SDS011;39787;53.174;5.798;2023-06-01T00:44:24;18.37;;;5.60;;
53871;SDS011;39787;53.174;5.798;2023-06-01T00:45:25;14.90;;;5.53;;
53871;SDS011;39787;53.174;5.798;2023-06-01T00:46:25;12.17;;;5.00;;
53871;SDS011;39787;53.174;5.798;2023-06-01T00:47:27;15.25;;;5.40;;
53871;SDS011;39787;53.174;5.798;2023-06-01T00:48:27;13.47;;;4.97;;
53871;SDS011;39787;53.174;5.798;2023-06-01T00:49:28;15.17;;;5.23;;
53871;SDS011;39787;53.174;5.798;2023-06-01T00:50:28;12.87;;;5.70;;
53871;SDS011;39787;53.174;5.798;2023-06-01T00:51:29;15.32;;;5.72;;
53871;SDS011;39787;53.174;5.798;2023-06-01T00:52:29;13.40;;;5.77;;
53871;SDS011;39787;53.174;5.798;2023-06-01T00:53:30;15.40;;;5.70;;
53871;SDS011;39787;53.174;5.798;2023-06-01T00:54:31;10.43;;;5.20;;
53871;SDS011;39787;53.174;5.798;2023-06-01T00:55:31;11.10;;;5.13;;
53871;SDS011;39787;53.174;5.798;2023-06-01T00:56:32;14.98;;;4.72;;
53871;SDS011;39787;53.174;5.798;2023-06-01T00:57:33;14.50;;;5.00;;
53871;SDS011;39787;53.174;5.798;2023-06-01T00:58:33;18.23;;;5.50;;
53871;SDS011;39787;53.174;5.798;2023-06-01T00:59:34;10.97;;;4.60;;
53871;SDS011;39787;53.174;5.798;2023-06-01T01:00:35;8.32;;;4.07;;
53871;SDS011;39787;53.174;5.798;2023-06-01T01:01:36;11.63;;;4.50;;
53871;SDS011;39787;53.174;5.798;2023-06-01T01:02:37;16.53;;;5.57;;
53871;SDS011;39787;53.174;5.798;2023-06-01T01:03:39;13.18;;;4.47;;
53871;SDS011;39787;53.174;5.798;2023-06-01T01:04:40;11.53;;;4.77;;
53871;SDS011;39787;53.174;5.798;2023-06-01T01:05:40;13.00;;;5.00;;
53871;SDS011;39787;53.174;5.798;2023-06-01T01:08:13;12.80;;;4.78;;
53871;SDS011;39787;53.174;5.798;2023-06-01T01:09:34;13.93;;;4.35;;
53871;SDS011;39787;53.174;5.798;2023-06-01T01:10:41;13.98;;;4.28;;
53871;SDS011;39787;53.174;5.798;2023-06-01T01:12:24;14.75;;;5.45;;
53871;SDS011;39787;53.174;5.798;2023-06-01T01:13:47;13.88;;;4.45;;
53871;SDS011;39787;53.174;5.798;2023-06-01T01:15:09;12.75;;;5.05;;
53871;SDS011;39787;53.174;5.798;2023-06-01T01:18:40;11.40;;;4.80;;
53871;SDS011;39787;53.174;5.798;2023-06-01T01:19:59;15.80;;;6.13;;
53871;SDS011;39787;53.174;5.798;2023-06-01T01:21:03;14.55;;;5.00;;
53871;SDS011;39787;53.174;5.798;2023-06-01T01:24:53;13.88;;;5.10;;
53871;SDS011;39787;53.174;5.798;2023-06-01T01:26:13;20.63;;;5.65;;
53871;SDS011;39787;53.174;5.798;2023-06-01T01:27:39;14.10;;;4.97;;
53871;SDS011;39787;53.174;5.798;2023-06-01T01:29:06;13.93;;;5.38;;
53871;SDS011;39787;53.174;5.798;2023-06-01T01:30:10;14.70;;;6.05;;
53871;SDS011;39787;53.174;5.798;2023-06-01T01:32:12;10.73;;;5.07;;
53871;SDS011;39787;53.174;5.798;2023-06-01T01:33:13;19.40;;;6.60;;
53871;SDS011;39787;53.174;5.798;2023-06-01T01:34:14;17.13;;;5.55;;
53871;SDS011;39787;53.174;5.798;2023-06-01T01:35:17;11.98;;;5.13;;
53871;SDS011;39787;53.174;5.798;2023-06-01T01:36:19;16.92;;;5.25;;
53871;SDS011;39787;53.174;5.798;2023-06-01T01:37:21;12.77;;;5.18;;
53871;SDS011;39787;53.174;5.798;2023-06-01T01:38:22;13.43;;;5.47;;
53871;SDS011;39787;53.174;5.798;2023-06-01T01:39:22;14.57;;;5.70;;
53871;SDS011;39787;53.174;5.798;2023-06-01T01:40:23;12.47;;;5.53;;
53871;SDS011;39787;53.174;5.798;2023-06-01T01:41:23;13.37;;;5.47;;
53871;SDS011;39787;53.174;5.798;2023-06-01T01:42:24;12.10;;;5.13;;
53871;SDS011;39787;53.174;5.798;2023-06-01T01:43:24;12.75;;;5.15;;
53871;SDS011;39787;53.174;5.798;2023-06-01T01:44:25;14.00;;;4.53;;
53871;SDS011;39787;53.174;5.798;2023-06-01T01:45:26;13.67;;;5.10;;
53871;SDS011;39787;53.174;5.798;2023-06-01T01:46:30;15.43;;;4.72;;
53871;SDS011;39787;53.174;5.798;2023-06-01T01:47:40;14.88;;;5.30;;
53871;SDS011;39787;53.174;5.798;2023-06-01T01:50:06;17.38;;;5.68;;
53871;SDS011;39787;53.174;5.798;2023-06-01T01:51:15;12.40;;;4.90;;
53871;SDS011;39787;53.174;5.798;2023-06-01T01:53:26;9.60;;;4.90;;
53871;SDS011;39787;53.174;5.798;2023-06-01T01:54:27;14.98;;;6.35;;
53871;SDS011;39787;53.174;5.798;2023-06-01T01:55:28;10.50;;;5.70;;
53871;SDS011;39787;53.174;5.798;2023-06-01T01:56:31;19.25;;;6.53;;
53871;SDS011;39787;53.174;5.798;2023-06-01T01:57:31;12.93;;;5.22;;
53871;SDS011;39787;53.174;5.798;2023-06-01T01:58:33;15.43;;;6.38;;
53871;SDS011;39787;53.174;5.798;2023-06-01T01:59:33;15.73;;;6.40;;
53871;SDS011;39787;53.174;5.798;2023-06-01T02:00:36;12.65;;;6.20;;
53871;SDS011;39787;53.174;5.798;2023-06-01T02:01:36;11.93;;;5.80;;
53871;SDS011;39787;53.174;5.798;2023-06-01T02:02:37;14.40;;;5.82;;
53871;SDS011;39787;53.174;5.798;2023-06-01T02:03:38;10.73;;;5.63;;
53871;SDS011;39787;53.174;5.798;2023-06-01T02:04:43;13.87;;;5.93;;
53871;SDS011;39787;53.174;5.798;2023-06-01T02:05:44;16.23;;;6.18;;
53871;SDS011;39787;53.174;5.798;2023-06-01T02:06:45;18.57;;;6.80;;
53871;SDS011;39787;53.174;5.798;2023-06-01T02:07:45;17.60;;;6.27;;
53871;SDS011;39787;53.174;5.798;2023-06-01T02:08:46;20.07;;;6.60;;
53871;SDS011;39787;53.174;5.798;2023-06-01T02:09:46;16.47;;;5.90;;
53871;SDS011;39787;53.174;5.798;2023-06-01T02:10:47;21.63;;;5.90;;
53871;SDS011;39787;53.174;5.798;2023-06-01T02:11:47;13.80;;;5.80;;
53871;SDS011;39787;53.174;5.798;2023-06-01T02:12:48;18.67;;;6.33;;
53871;SDS011;39787;53.174;5.798;2023-06-01T02:13:48;14.07;;;5.67;;
53871;SDS011;39787;53.174;5.798;2023-06-01T02:14:49;19.10;;;6.07;;
53871;SDS011;39787;53.174;5.798;2023-06-01T02:15:49;19.07;;;5.70;;
53871;SDS011;39787;53.174;5.798;2023-06-01T02:16:50;9.20;;;4.80;;
53871;SDS011;39787;53.174;5.798;2023-06-01T02:17:50;9.83;;;4.60;;
53871;SDS011;39787;53.174;5.798;2023-06-01T02:18:51;17.97;;;5.03;;
53871;SDS011;39787;53.174;5.798;2023-06-01T02:19:52;12.60;;;4.93;;
53871;SDS011;39787;53.174;5.798;2023-06-01T02:20:52;16.30;;;5.43;;
53871;SDS011;39787;53.174;5.798;2023-06-01T02:21:53;12.23;;;4.57;;
53871;SDS011;39787;53.174;5.798;2023-06-01T02:22:53;15.10;;;5.70;;
53871;SDS011;39787;53.174;5.798;2023-06-01T02:23:54;10.80;;;4.67;;
53871;SDS011;39787;53.174;5.798;2023-06-01T02:24:54;11.23;;;5.10;;
53871;SDS011;39787;53.174;5.798;2023-06-01T02:25:55;10.33;;;4.53;;
53871;SDS011;39787;53.174;5.798;2023-06-01T02:26:55;13.27;;;5.47;;
53871;SDS011;39787;53.174;5.798;2023-06-01T02:27:56;13.67;;;4.67;;
53871;SDS011;39787;53.174;5.798;2023-06-01T02:28:56;13.13;;;5.13;;
53871;SDS011;39787;53.174;5.798;2023-06-01T02:29:57;15.43;;;5.03;;
53871;SDS011;39787;53.174;5.798;2023-06-01T02:30:57;19.37;;;6.17;;
53871;SDS011;39787;53.174;5.798;2023-06-01T02:31:58;13.57;;;4.67;;
53871;SDS011;39787;53.174;5.798;2023-06-01T02:32:58;12.67;;;4.67;;
53871;SDS011;39787;53.174;5.798;2023-06-01T02:33:59;8.90;;;4.90;;
53871;SDS011;39787;53.174;5.798;2023-06-01T02:34:59;12.47;;;5.20;;
53871;SDS011;39787;53.174;5.798;2023-06-01T02:36:00;12.70;;;4.40;;
53871;SDS011;39787;53.174;5.798;2023-06-01T02:37:01;12.65;;;5.47;;
53871;SDS011;39787;53.174;5.798;2023-06-01T02:38:01;10.60;;;4.87;;
53871;SDS011;39787;53.174;5.798;2023-06-01T02:39:02;14.43;;;5.43;;
53871;SDS011;39787;53.174;5.798;2023-06-01T02:40:02;10.53;;;4.03;;
53871;SDS011;39787;53.174;5.798;2023-06-01T02:41:03;10.63;;;4.70;;
53871;SDS011;39787;53.174;5.798;2023-06-01T02:42:04;14.60;;;5.30;;
53871;SDS011;39787;53.174;5.798;2023-06-01T02:43:04;15.88;;;4.93;;
53871;SDS011;39787;53.174;5.798;2023-06-01T02:44:05;8.93;;;4.40;;
53871;SDS011;39787;53.174;5.798;2023-06-01T02:45:06;11.23;;;4.50;;
53871;SDS011;39787;53.174;5.798;2023-06-01T02:46:08;16.05;;;4.57;;
53871;SDS011;39787;53.174;5.798;2023-06-01T02:47:08;9.47;;;4.37;;
53871;SDS011;39787;53.174;5.798;2023-06-01T02:48:09;11.17;;;4.63;;
53871;SDS011;39787;53.174;5.798;2023-06-01T02:49:09;8.50;;;4.03;;
53871;SDS011;39787;53.174;5.798;2023-06-01T02:50:10;15.03;;;4.07;;
53871;SDS011;39787;53.174;5.798;2023-06-01T02:51:11;13.33;;;5.13;;
53871;SDS011;39787;53.174;5.798;2023-06-01T02:52:11;11.02;;;4.00;;
53871;SDS011;39787;53.174;5.798;2023-06-01T02:53:12;12.43;;;4.37;;
53871;SDS011;39787;53.174;5.798;2023-06-01T02:54:12;15.97;;;5.90;;
53871;SDS011;39787;53.174;5.798;2023-06-01T02:55:13;9.50;;;4.07;;
53871;SDS011;39787;53.174;5.798;2023-06-01T02:56:13;11.03;;;5.60;;
53871;SDS011;39787;53.174;5.798;2023-06-01T02:57:14;9.83;;;4.57;;
53871;SDS011;39787;53.174;5.798;2023-06-01T02:58:14;9.60;;;4.13;;
53871;SDS011;39787;53.174;5.798;2023-06-01T02:59:15;10.63;;;5.37;;
53871;SDS011;39787;53.174;5.798;2023-06-01T03:00:15;8.60;;;4.43;;
53871;SDS011;39787;53.174;5.798;2023-06-01T03:01:16;15.67;;;5.27;;
53871;SDS011;39787;53.174;5.798;2023-06-01T03:02:16;13.60;;;4.43;;
53871;SDS011;39787;53.174;5.798;2023-06-01T03:03:17;8.57;;;4.10;;
53871;SDS011;39787;53.174;5.798;2023-06-01T03:04:17;7.20;;;3.80;;
53871;SDS011;39787;53.174;5.798;2023-06-01T03:05:18;12.07;;;3.83;;
53871;SDS011;39787;53.174;5.798;2023-06-01T03:06:18;6.50;;;3.50;;
53871;SDS011;39787;53.174;5.798;2023-06-01T03:07:19;8.63;;;3.43;;
53871;SDS011;39787;53.174;5.798;2023-06-01T03:08:19;7.17;;;3.23;;
53871;SDS011;39787;53.174;5.798;2023-06-01T03:09:20;4.03;;;2.97;;
53871;SDS011;39787;53.174;5.798;2023-06-01T03:10:20;5.27;;;2.80;;
53871;SDS011;39787;53.174;5.798;2023-06-01T03:11:21;9.23;;;2.97;;
53871;SDS011;39787;53.174;5.798;2023-06-01T03:12:21;7.90;;;3.17;;
53871;SDS011;39787;53.174;5.798;2023-06-01T03:13:21;11.43;;;3.57;;
53871;SDS011;39787;53.174;5.798;2023-06-01T03:14:22;6.23;;;3.43;;
53871;SDS011;39787;53.174;5.798;2023-06-01T03:15:22;7.80;;;3.10;;
53871;SDS011;39787;53.174;5.798;2023-06-01T03:16:23;10.53;;;3.27;;
53871;SDS011;39787;53.174;5.798;2023-06-01T03:17:23;9.20;;;3.40;;
53871;SDS011;39787;53.174;5.798;2023-06-01T03:18:24;7.90;;;3.17;;
53871;SDS011;39787;53.174;5.798;2023-06-01T03:19:24;15.07;;;3.70;;
53871;SDS011;39787;53.174;5.798;2023-06-01T03:20:25;6.80;;;3.50;;
53871;SDS011;39787;53.174;5.798;2023-06-01T03:21:25;9.93;;;4.10;;
53871;SDS011;39787;53.174;5.798;2023-06-01T03:22:26;8.23;;;3.30;;
53871;SDS011;39787;53.174;5.798;2023-06-01T03:23:26;9.67;;;3.57;;
53871;SDS011;39787;53.174;5.798;2023-06-01T03:24:27;8.03;;;4.37;;
53871;SDS011;39787;53.174;5.798;2023-06-01T03:25:27;8.73;;;3.67;;
53871;SDS011;39787;53.174;5.798;2023-06-01T03:26:28;12.02;;;4.47;;
53871;SDS011;39787;53.174;5.798;2023-06-01T03:27:29;10.87;;;4.00;;
53871;SDS011;39787;53.174;5.798;2023-06-01T03:28:29;9.17;;;3.50;;
53871;SDS011;39787;53.174;5.798;2023-06-01T03:29:30;6.37;;;3.27;;
53871;SDS011;39787;53.174;5.798;2023-06-01T03:30:30;11.43;;;3.30;;
53871;SDS011;39787;53.174;5.798;2023-06-01T03:31:31;8.57;;;3.63;;
53871;SDS011;39787;53.174;5.798;2023-06-01T03:32:31;10.47;;;3.97;;
53871;SDS011;39787;53.174;5.798;2023-06-01T03:33:32;11.13;;;4.23;;
53871;SDS011;39787;53.174;5.798;2023-06-01T03:34:32;11.73;;;3.40;;
53871;SDS011;39787;53.174;5.798;2023-06-01T03:35:32;10.73;;;3.90;;
53871;SDS011;39787;53.174;5.798;2023-06-01T03:36:33;8.90;;;3.70;;
53871;SDS011;39787;53.174;5.798;2023-06-01T03:37:34;7.77;;;3.53;;
53871;SDS011;39787;53.174;5.798;2023-06-01T03:39:35;10.88;;;3.30;;
53871;SDS011;39787;53.174;5.798;2023-06-01T03:40:36;9.43;;;4.03;;
53871;SDS011;39787;53.174;5.798;2023-06-01T03:41:36;8.53;;;3.20;;
53871;SDS011;39787;53.174;5.798;2023-06-01T03:43:10;11.40;;;4.13;;
53871;SDS011;39787;53.174;5.798;2023-06-01T03:44:03;5.93;;;3.00;;
53871;SDS011;39787;53.174;5.798;2023-06-01T03:45:04;9.30;;;3.63;;
53871;SDS011;39787;53.174;5.798;2023-06-01T03:46:05;11.77;;;3.72;;
53871;SDS011;39787;53.174;5.798;2023-06-01T03:47:05;10.93;;;3.63;;
53871;SDS011;39787;53.174;5.798;2023-06-01T03:48:06;7.13;;;3.10;;
53871;SDS011;39787;53.174;5.798;2023-06-01T03:49:06;7.37;;;3.43;;
53871;SDS011;39787;53.174;5.798;2023-06-01T03:50:07;11.93;;;3.53;;
53871;SDS011;39787;53.174;5.798;2023-06-01T03:51:10;8.57;;;3.10;;
53871;SDS011;39787;53.174;5.798;2023-06-01T03:52:10;10.63;;;3.37;;
53871;SDS011;39787;53.174;5.798;2023-06-01T03:53:11;6.30;;;3.20;;
53871;SDS011;39787;53.174;5.798;2023-06-01T03:54:12;11.77;;;3.33;;
53871;SDS011;39787;53.174;5.798;2023-06-01T03:55:12;12.38;;;4.28;;
53871;SDS011;39787;53.174;5.798;2023-06-01T03:56:13;7.23;;;3.93;;
53871;SDS011;39787;53.174;5.798;2023-06-01T03:57:13;9.37;;;3.13;;
53871;SDS011;39787;53.174;5.798;2023-06-01T03:58:14;8.93;;;3.07;;
53871;SDS011;39787;53.174;5.798;2023-06-01T03:59:14;5.93;;;3.20;;
53871;SDS011;39787;53.174;5.798;2023-06-01T04:00:14;8.87;;;3.53;;
53871;SDS011;39787;53.174;5.798;2023-06-01T04:01:15;9.10;;;3.60;;
53871;SDS011;39787;53.174;5.798;2023-06-01T04:02:16;10.27;;;3.20;;
53871;SDS011;39787;53.174;5.798;2023-06-01T04:03:16;11.73;;;3.47;;
53871;SDS011;39787;53.174;5.798;2023-06-01T04:04:17;13.87;;;3.80;;
53871;SDS011;39787;53.174;5.798;2023-06-01T04:05:22;11.98;;;3.95;;
53871;SDS011;39787;53.174;5.798;2023-06-01T04:06:24;13.27;;;4.03;;
53871;SDS011;39787;53.174;5.798;2023-06-01T04:07:24;12.17;;;3.30;;
53871;SDS011;39787;53.174;5.798;2023-06-01T04:08:25;9.67;;;3.73;;
53871;SDS011;39787;53.174;5.798;2023-06-01T04:09:26;10.63;;;3.53;;
53871;SDS011;39787;53.174;5.798;2023-06-01T04:10:26;11.47;;;3.60;;
53871;SDS011;39787;53.174;5.798;2023-06-01T04:11:27;7.00;;;3.17;;
53871;SDS011;39787;53.174;5.798;2023-06-01T04:12:27;9.07;;;3.67;;
53871;SDS011;39787;53.174;5.798;2023-06-01T04:13:28;11.07;;;3.67;;
53871;SDS011;39787;53.174;5.798;2023-06-01T04:14:28;12.67;;;3.60;;
53871;SDS011;39787;53.174;5.798;2023-06-01T04:15:29;12.63;;;3.63;;
53871;SDS011;39787;53.174;5.798;2023-06-01T04:16:29;13.43;;;3.50;;
53871;SDS011;39787;53.174;5.798;2023-06-01T04:17:30;10.67;;;3.87;;
53871;SDS011;39787;53.174;5.798;2023-06-01T04:18:30;11.47;;;3.67;;
53871;SDS011;39787;53.174;5.798;2023-06-01T04:19:30;8.03;;;3.37;;
53871;SDS011;39787;53.174;5.798;2023-06-01T04:20:31;14.83;;;4.47;;
53871;SDS011;39787;53.174;5.798;2023-06-01T04:21:32;7.27;;;4.00;;
53871;SDS011;39787;53.174;5.798;2023-06-01T04:22:32;9.23;;;3.30;;
53871;SDS011;39787;53.174;5.798;2023-06-01T04:23:33;7.78;;;3.45;;
53871;SDS011;39787;53.174;5.798;2023-06-01T04:24:33;10.13;;;3.50;;
53871;SDS011;39787;53.174;5.798;2023-06-01T04:25:34;11.83;;;4.30;;
53871;SDS011;39787;53.174;5.798;2023-06-01T04:26:34;10.60;;;3.50;;
53871;SDS011;39787;53.174;5.798;2023-06-01T04:27:35;11.87;;;3.93;;
53871;SDS011;39787;53.174;5.798;2023-06-01T04:28:36;12.00;;;3.27;;
53871;SDS011;39787;53.174;5.798;2023-06-01T04:29:36;9.20;;;3.47;;
53871;SDS011;39787;53.174;5.798;2023-06-01T04:30:36;10.70;;;3.27;;
53871;SDS011;39787;53.174;5.798;2023-06-01T04:31:37;14.53;;;3.70;;
53871;SDS011;39787;53.174;5.798;2023-06-01T04:32:38;8.73;;;3.97;;
53871;SDS011;39787;53.174;5.798;2023-06-01T04:33:39;8.20;;;3.50;;
53871;SDS011;39787;53.174;5.798;2023-06-01T04:34:40;10.40;;;3.53;;
53871;SDS011;39787;53.174;5.798;2023-06-01T04:35:40;13.83;;;3.53;;
53871;SDS011;39787;53.174;5.798;2023-06-01T04:36:40;12.87;;;3.60;;
53871;SDS011;39787;53.174;5.798;2023-06-01T04:37:41;10.93;;;4.03;;
53871;SDS011;39787;53.174;5.798;2023-06-01T04:38:42;12.13;;;3.47;;
53871;SDS011;39787;53.174;5.798;2023-06-01T04:39:42;8.67;;;3.20;;
53871;SDS011;39787;53.174;5.798;2023-06-01T04:40:43;7.27;;;3.53;;
53871;SDS011;39787;53.174;5.798;2023-06-01T04:41:43;8.87;;;3.20;;
53871;SDS011;39787;53.174;5.798;2023-06-01T04:42:44;13.00;;;3.67;;
53871;SDS011;39787;53.174;5.798;2023-06-01T04:43:44;7.23;;;3.73;;
53871;SDS011;39787;53.174;5.798;2023-06-01T04:44:45;10.40;;;3.33;;
53871;SDS011;39787;53.174;5.798;2023-06-01T04:45:46;10.53;;;3.10;;
53871;SDS011;39787;53.174;5.798;2023-06-01T04:46:46;10.88;;;3.78;;
53871;SDS011;39787;53.174;5.798;2023-06-01T04:47:47;10.30;;;3.07;;
53871;SDS011;39787;53.174;5.798;2023-06-01T04:48:47;8.00;;;3.83;;
53871;SDS011;39787;53.174;5.798;2023-06-01T04:49:48;4.80;;;2.60;;
53871;SDS011;39787;53.174;5.798;2023-06-01T04:50:48;8.57;;;3.50;;
53871;SDS011;39787;53.174;5.798;2023-06-01T04:51:48;4.30;;;3.20;;
53871;SDS011;39787;53.174;5.798;2023-06-01T04:52:49;10.50;;;3.23;;
53871;SDS011;39787;53.174;5.798;2023-06-01T04:53:50;9.93;;;3.77;;
53871;SDS011;39787;53.174;5.798;2023-06-01T04:54:52;10.48;;;3.15;;
53871;SDS011;39787;53.174;5.798;2023-06-01T04:55:52;8.50;;;3.60;;
53871;SDS011;39787;53.174;5.798;2023-06-01T04:56:53;6.10;;;2.90;;
53871;SDS011;39787;53.174;5.798;2023-06-01T04:57:53;10.17;;;3.30;;
53871;SDS011;39787;53.174;5.798;2023-06-01T04:58:54;11.90;;;3.50;;
53871;SDS011;39787;53.174;5.798;2023-06-01T04:59:55;7.32;;;3.00;;
53871;SDS011;39787;53.174;5.798;2023-06-01T05:00:56;12.57;;;3.07;;
53871;SDS011;39787;53.174;5.798;2023-06-01T05:01:56;9.90;;;3.10;;
53871;SDS011;39787;53.174;5.798;2023-06-01T05:02:56;8.57;;;3.10;;
53871;SDS011;39787;53.174;5.798;2023-06-01T05:03:57;12.20;;;3.20;;
53871;SDS011;39787;53.174;5.798;2023-06-01T05:04:57;8.43;;;3.27;;
53871;SDS011;39787;53.174;5.798;2023-06-01T05:05:58;7.93;;;3.23;;
53871;SDS011;39787;53.174;5.798;2023-06-01T05:06:58;6.37;;;3.30;;
53871;SDS011;39787;53.174;5.798;2023-06-01T05:07:59;9.63;;;2.97;;
53871;SDS011;39787;53.174;5.798;2023-06-01T05:08:59;6.40;;;3.13;;
53871;SDS011;39787;53.174;5.798;2023-06-01T05:10:00;8.87;;;3.73;;
53871;SDS011;39787;53.174;5.798;2023-06-01T05:11:00;11.33;;;3.50;;
53871;SDS011;39787;53.174;5.798;2023-06-01T05:12:01;8.97;;;3.00;;
53871;SDS011;39787;53.174;5.798;2023-06-01T05:13:01;6.60;;;3.00;;
53871;SDS011;39787;53.174;5.798;2023-06-01T05:14:02;6.50;;;3.03;;
53871;SDS011;39787;53.174;5.798;2023-06-01T05:15:03;7.07;;;3.33;;
53871;SDS011;39787;53.174;5.798;2023-06-01T05:16:05;11.98;;;3.10;;
53871;SDS011;39787;53.174;5.798;2023-06-01T05:17:07;7.43;;;3.10;;
53871;SDS011;39787;53.174;5.798;2023-06-01T05:18:07;14.63;;;4.10;;
53871;SDS011;39787;53.174;5.798;2023-06-01T05:19:08;11.17;;;3.10;;
53871;SDS011;39787;53.174;5.798;2023-06-01T05:20:08;8.43;;;3.53;;
53871;SDS011;39787;53.174;5.798;2023-06-01T05:21:09;6.25;;;2.83;;
53871;SDS011;39787;53.174;5.798;2023-06-01T05:22:10;10.17;;;3.63;;
53871;SDS011;39787;53.174;5.798;2023-06-01T05:23:10;10.30;;;3.70;;
53871;SDS011;39787;53.174;5.798;2023-06-01T05:24:11;15.30;;;3.93;;
53871;SDS011;39787;53.174;5.798;2023-06-01T05:25:11;8.53;;;3.63;;
53871;SDS011;39787;53.174;5.798;2023-06-01T05:26:12;8.83;;;3.67;;
53871;SDS011;39787;53.174;5.798;2023-06-01T05:27:12;7.63;;;3.20;;
53871;SDS011;39787;53.174;5.798;2023-06-01T05:28:14;11.13;;;3.80;;
53871;SDS011;39787;53.174;5.798;2023-06-01T05:29:14;7.28;;;3.05;;
53871;SDS011;39787;53.174;5.798;2023-06-01T05:30:15;8.13;;;3.27;;
53871;SDS011;39787;53.174;5.798;2023-06-01T05:31:15;9.00;;;3.77;;
53871;SDS011;39787;53.174;5.798;2023-06-01T05:32:16;11.40;;;3.50;;
53871;SDS011;39787;53.174;5.798;2023-06-01T05:33:16;5.53;;;3.27;;
53871;SDS011;39787;53.174;5.798;2023-06-01T05:34:17;9.87;;;3.77;;
53871;SDS011;39787;53.174;5.798;2023-06-01T05:35:17;6.77;;;3.20;;
53871;SDS011;39787;53.174;5.798;2023-06-01T05:36:18;10.77;;;3.70;;
53871;SDS011;39787;53.174;5.798;2023-06-01T05:37:18;7.57;;;3.43;;
53871;SDS011;39787;53.174;5.798;2023-06-01T05:38:19;13.60;;;3.63;;
53871;SDS011;39787;53.174;5.798;2023-06-01T05:39:19;10.67;;;3.10;;
53871;SDS011;39787;53.174;5.798;2023-06-01T05:40:19;11.83;;;3.07;;
53871;SDS011;39787;53.174;5.798;2023-06-01T05:41:20;10.50;;;2.97;;
53871;SDS011;39787;53.174;5.798;2023-06-01T05:42:20;5.23;;;2.80;;
53871;SDS011;39787;53.174;5.798;2023-06-01T05:43:21;7.30;;;3.57;;
53871;SDS011;39787;53.174;5.798;2023-06-01T05:44:21;7.63;;;2.97;;
53871;SDS011;39787;53.174;5.798;2023-06-01T05:45:22;9.10;;;3.07;;
53871;SDS011;39787;53.174;5.798;2023-06-01T05:46:22;9.93;;;3.37;;
53871;SDS011;39787;53.174;5.798;2023-06-01T05:47:23;7.03;;;3.00;;
53871;SDS011;39787;53.174;5.798;2023-06-01T05:48:23;9.47;;;3.30;;
53871;SDS011;39787;53.174;5.798;2023-06-01T05:49:24;9.93;;;3.50;;
53871;SDS011;39787;53.174;5.798;2023-06-01T05:50:24;5.57;;;2.87;;
53871;SDS011;39787;53.174;5.798;2023-06-01T05:51:25;8.77;;;3.20;;
53871;SDS011;39787;53.174;5.798;2023-06-01T05:52:25;10.70;;;3.40;;
53871;SDS011;39787;53.174;5.798;2023-06-01T05:53:26;12.70;;;3.70;;
53871;SDS011;39787;53.174;5.798;2023-06-01T05:54:26;12.30;;;3.20;;
53871;SDS011;39787;53.174;5.798;2023-06-01T05:55:27;5.87;;;3.00;;
53871;SDS011;39787;53.174;5.798;2023-06-01T05:56:27;11.10;;;3.77;;
53871;SDS011;39787;53.174;5.798;2023-06-01T05:57:28;8.90;;;3.57;;
53871;SDS011;39787;53.174;5.798;2023-06-01T05:58:28;6.20;;;3.60;;
53871;SDS011;39787;53.174;5.798;2023-06-01T05:59:29;8.70;;;3.30;;
53871;SDS011;39787;53.174;5.798;2023-06-01T06:00:29;7.03;;;3.27;;
53871;SDS011;39787;53.174;5.798;2023-06-01T06:01:29;14.53;;;3.97;;
53871;SDS011;39787;53.174;5.798;2023-06-01T06:02:30;10.23;;;3.57;;
53871;SDS011;39787;53.174;5.798;2023-06-01T06:03:30;12.37;;;3.80;;
53871;SDS011;39787;53.174;5.798;2023-06-01T06:04:31;11.53;;;3.50;;
53871;SDS011;39787;53.174;5.798;2023-06-01T06:05:31;6.63;;;3.57;;
53871;SDS011;39787;53.174;5.798;2023-06-01T06:06:32;11.13;;;3.60;;
53871;SDS011;39787;53.174;5.798;2023-06-01T06:07:32;6.80;;;3.13;;
53871;SDS011;39787;53.174;5.798;2023-06-01T06:08:33;6.27;;;3.13;;
53871;SDS011;39787;53.174;5.798;2023-06-01T06:09:33;8.73;;;3.20;;
53871;SDS011;39787;53.174;5.798;2023-06-01T06:10:33;12.83;;;3.67;;
53871;SDS011;39787;53.174;5.798;2023-06-01T06:11:34;10.10;;;2.97;;
53871;SDS011;39787;53.174;5.798;2023-06-01T06:12:34;7.43;;;3.07;;
53871;SDS011;39787;53.174;5.798;2023-06-01T06:13:35;8.27;;;3.50;;
53871;SDS011;39787;53.174;5.798;2023-06-01T06:14:35;9.63;;;3.17;;
53871;SDS011;39787;53.174;5.798;2023-06-01T06:15:36;16.90;;;4.17;;
53871;SDS011;39787;53.174;5.798;2023-06-01T06:16:36;7.60;;;2.33;;
53871;SDS011;39787;53.174;5.798;2023-06-01T06:17:37;11.03;;;3.57;;